Aeroporto :
LOGIN :

Iscrizione | Disclaimer

   EN    FR    IT 

 










Sommario :    VFR   VFR Marginale   IFR   IFR Intensivo   IFR Molto Intensivo
Visibilità : 
Base nubi : 
>= 8 km
>= 3000ft
5 / 8 km
1000 / 3000 ft
1500m / 5 km
500 / 1000 ft
800 / 1500m
200 / 500 ft
< 800m
< 200 ft
Simboli :   Temporali  Nebbia  Neve Forte  Precipitazioni Forti  Vento > 20 kt
SIGMETs :   Varie  Temporali  Ghiacco  Turbolenza  Onda orograficha  Ceneri Vulcaniche






- Altitudine del aeroporto : 3 ft
- Codice IATA : LWR


EHLW - Leuuwarden Air Base

ULTIMO METAR :
  • 291645Z AUTO 26013KT 230V290 9999 FEW024 SCT031 BKN036 06/03 Q1006 BLU 28013KT 9999 SCT020 BKN030 RMK R23

METARs OBSOLETI :
  • 291625Z AUTO 26014KT 9999 FEW027 BKN046 BKN050 06/03 Q1006 BLU 28013G25KT 9999 SCT020 BKN030 TEMPO 4000 SHRA FEW015 SCT018CB BKN020 RMK R23
  • 291601Z AUTO 26012KT 9999 FEW022 SCT025 BKN033 06/03 Q1005 BLU 28013G25KT 9999 SCT020 BKN030 TEMPO 4000 SHRA FEW015 SCT018CB BKN020 RMK R23
  • 291555Z AUTO 25012KT 9999 FEW019 SCT024 BKN029 06/03 Q1005 WHT 28013G25KT 9999 SCT020 BKN030 TEMPO 4000 SHRA FEW015 SCT018CB BKN020 RMK R23
  • 291542Z AUTO 26013KT 9999 FEW020 SCT023 BKN027 05/03 Q1005 WHT 28013G25KT 9999 SCT020 BKN030 TEMPO 4000 SHRA FEW015 SCT018CB BKN020 RMK R23
  • 291536Z AUTO 26012KT 9999 FEW019 BKN025 BKN230 05/03 Q1005 BLU 28013G25KT 9999 SCT020 BKN030 TEMPO 4000 SHRA FEW015 SCT018CB BKN020 RMK R23
  • 291525Z AUTO 26011KT 9999 FEW019 SCT027 BKN045 05/02 Q1005 BLU 28013G25KT 9999 SCT020 BKN030 TEMPO 4000 SHRA FEW015 SCT018CB BKN020 RMK R23
  • 291455Z AUTO 27014KT 240V310 9999 FEW033 SCT043 05/02 Q1004 BLU 28013G25KT 9999 SCT020 BKN030 TEMPO 4000 SHRA FEW015 SCT018CB BKN020 RMK R23
  • 291437Z AUTO 28013KT 240V310 9999 FEW024 SCT045 05/03 Q1004 BLU 28013G25KT 9999 SCT020 BKN030 TEMPO 4000 SHRA FEW015 SCT018CB BKN020 RMK R23
  • 291426Z AUTO 27018KT 240V300 9999 -RA FEW021 BKN025 BKN030 05/03 Q1004 BLU 28015G28KT 9999 SCT020 BKN030 TEMPO 4000 SHRA FEW015 SCT018CB BKN020 RMK R23
  • 291412Z AUTO 27018KT 240V300 9999 FEW015CB SCT029 05/02 Q1004 BLU 28015G28KT 9999 SCT020 BKN030 TEMPO 4000 SHRA FEW015 SCT018CB BKN020 RMK R23
  • 291404Z AUTO 27020G31KT 240V300 9999 FEW015CB SCT024 BKN032 05/02 Q1004 WHT 28015G28KT 9999 SCT020 BKN030 TEMPO 4000 SHRA FEW015 SCT018CB BKN020 RMK R23
  • 291355Z AUTO 27018KT 240V330 9999 BKN020 BKN026 BKN030 07/03 Q1003 WHT 28015G28KT 9999 SCT020 BKN030 TEMPO 4000 SHRA FEW015 SCT018CB BKN020 RMK R23
  • 291339Z AUTO 29015KT 260V330 9999 OVC016 06/03 Q1003 WHT 28015G28KT 9999 SCT020 BKN030 TEMPO 4000 SHRA FEW015 SCT018CB BKN020 RMK R23

TAF TAF EHLW
Valido dal 29 a 14 ore il 30 a 02 ore UTC


291304Z 2914/3002 27017KT 9999 SCT020 BKN030
TEMPO 2914/2916 SCT018CB
TEMPO 2921/3002 25020G30KT



MetMap, La meteo Aeronautica in un colpo d'occhio ! - Copyright ORBIFLY Dicembre 2007 - Disclaimer

ORBIFLY MET'MAP TEAM :

Programmazione e sviluppo : Alexandra Zaïnal
Concezione : Baudouin d'Aumeries
Aiuto per la programmazione : Marc-Olivier Méhu
Supporto tecnico e logistico : Manuel Goepfert
Aiuto per la traduzione : Arnaldo La Scala

Contatto : metmap@orbifly.com




FONTI E CREDITI :

   NOAA